sensor_id;sensor_type;location;lat;lon;timestamp;P1;durP1;ratioP1;P2;durP2;ratioP2
53519;SDS011;39397;53.204;5.778;2023-04-24T00:01:47;9.27;;;5.25;;
53519;SDS011;39397;53.204;5.778;2023-04-24T00:04:13;6.90;;;4.50;;
53519;SDS011;39397;53.204;5.778;2023-04-24T00:06:41;9.02;;;4.50;;
53519;SDS011;39397;53.204;5.778;2023-04-24T00:09:08;6.68;;;4.50;;
53519;SDS011;39397;53.204;5.778;2023-04-24T00:11:35;7.22;;;4.93;;
53519;SDS011;39397;53.204;5.778;2023-04-24T00:14:02;7.88;;;5.22;;
53519;SDS011;39397;53.204;5.778;2023-04-24T00:16:28;10.07;;;5.95;;
53519;SDS011;39397;53.204;5.778;2023-04-24T00:18:54;9.63;;;6.45;;
53519;SDS011;39397;53.204;5.778;2023-04-24T00:21:19;8.43;;;5.35;;
53519;SDS011;39397;53.204;5.778;2023-04-24T00:23:46;10.23;;;5.60;;
53519;SDS011;39397;53.204;5.778;2023-04-24T00:26:12;8.40;;;6.18;;
53519;SDS011;39397;53.204;5.778;2023-04-24T00:28:38;7.40;;;4.97;;
53519;SDS011;39397;53.204;5.778;2023-04-24T00:31:04;8.32;;;5.82;;
53519;SDS011;39397;53.204;5.778;2023-04-24T00:33:30;8.13;;;5.80;;
53519;SDS011;39397;53.204;5.778;2023-04-24T00:35:56;7.85;;;6.05;;
53519;SDS011;39397;53.204;5.778;2023-04-24T00:38:21;8.48;;;5.85;;
53519;SDS011;39397;53.204;5.778;2023-04-24T00:40:47;8.52;;;5.30;;
53519;SDS011;39397;53.204;5.778;2023-04-24T00:43:15;9.00;;;6.70;;
53519;SDS011;39397;53.204;5.778;2023-04-24T00:45:41;8.05;;;6.32;;
53519;SDS011;39397;53.204;5.778;2023-04-24T00:48:08;7.47;;;6.30;;
53519;SDS011;39397;53.204;5.778;2023-04-24T00:50:35;8.45;;;6.55;;
53519;SDS011;39397;53.204;5.778;2023-04-24T00:53:01;7.55;;;6.45;;
53519;SDS011;39397;53.204;5.778;2023-04-24T00:55:27;7.78;;;6.95;;
53519;SDS011;39397;53.204;5.778;2023-04-24T00:57:53;8.77;;;7.18;;
53519;SDS011;39397;53.204;5.778;2023-04-24T01:00:19;7.10;;;6.28;;
53519;SDS011;39397;53.204;5.778;2023-04-24T01:02:47;7.85;;;6.30;;
53519;SDS011;39397;53.204;5.778;2023-04-24T01:05:13;9.38;;;7.45;;
53519;SDS011;39397;53.204;5.778;2023-04-24T01:07:43;8.63;;;7.72;;
53519;SDS011;39397;53.204;5.778;2023-04-24T01:10:10;9.52;;;7.70;;
53519;SDS011;39397;53.204;5.778;2023-04-24T01:12:37;8.63;;;6.88;;
53519;SDS011;39397;53.204;5.778;2023-04-24T01:15:04;8.18;;;7.00;;
53519;SDS011;39397;53.204;5.778;2023-04-24T01:17:31;8.05;;;7.25;;
53519;SDS011;39397;53.204;5.778;2023-04-24T01:19:57;7.82;;;7.03;;
53519;SDS011;39397;53.204;5.778;2023-04-24T01:22:25;10.93;;;8.35;;
53519;SDS011;39397;53.204;5.778;2023-04-24T01:24:51;8.80;;;7.65;;
53519;SDS011;39397;53.204;5.778;2023-04-24T01:27:18;9.93;;;7.15;;
53519;SDS011;39397;53.204;5.778;2023-04-24T01:29:45;9.40;;;8.27;;
53519;SDS011;39397;53.204;5.778;2023-04-24T01:32:12;11.60;;;8.38;;
53519;SDS011;39397;53.204;5.778;2023-04-24T01:34:38;9.98;;;7.85;;
53519;SDS011;39397;53.204;5.778;2023-04-24T01:37:04;9.70;;;8.55;;
53519;SDS011;39397;53.204;5.778;2023-04-24T01:39:30;9.95;;;7.10;;
53519;SDS011;39397;53.204;5.778;2023-04-24T01:41:58;8.80;;;7.90;;
53519;SDS011;39397;53.204;5.778;2023-04-24T01:44:24;9.55;;;7.38;;
53519;SDS011;39397;53.204;5.778;2023-04-24T01:46:51;9.73;;;8.73;;
53519;SDS011;39397;53.204;5.778;2023-04-24T01:49:18;11.15;;;8.57;;
53519;SDS011;39397;53.204;5.778;2023-04-24T01:51:45;9.40;;;8.05;;
53519;SDS011;39397;53.204;5.778;2023-04-24T01:54:11;9.50;;;8.50;;
53519;SDS011;39397;53.204;5.778;2023-04-24T01:56:37;9.77;;;8.70;;
53519;SDS011;39397;53.204;5.778;2023-04-24T01:59:07;10.02;;;8.90;;
53519;SDS011;39397;53.204;5.778;2023-04-24T02:01:36;10.10;;;8.65;;
53519;SDS011;39397;53.204;5.778;2023-04-24T02:04:03;9.75;;;8.55;;
53519;SDS011;39397;53.204;5.778;2023-04-24T02:06:29;10.25;;;8.50;;
53519;SDS011;39397;53.204;5.778;2023-04-24T02:08:56;12.35;;;8.20;;
53519;SDS011;39397;53.204;5.778;2023-04-24T02:11:23;14.70;;;8.60;;
53519;SDS011;39397;53.204;5.778;2023-04-24T02:13:49;11.48;;;7.75;;
53519;SDS011;39397;53.204;5.778;2023-04-24T02:16:15;9.10;;;4.78;;
53519;SDS011;39397;53.204;5.778;2023-04-24T02:18:41;8.32;;;5.05;;
53519;SDS011;39397;53.204;5.778;2023-04-24T02:21:07;11.60;;;8.27;;
53519;SDS011;39397;53.204;5.778;2023-04-24T02:23:32;11.98;;;7.88;;
53519;SDS011;39397;53.204;5.778;2023-04-24T02:25:58;9.18;;;7.07;;
53519;SDS011;39397;53.204;5.778;2023-04-24T02:28:23;12.32;;;8.02;;
53519;SDS011;39397;53.204;5.778;2023-04-24T02:30:50;9.60;;;6.75;;
53519;SDS011;39397;53.204;5.778;2023-04-24T02:33:16;6.95;;;5.32;;
53519;SDS011;39397;53.204;5.778;2023-04-24T02:35:41;5.63;;;3.88;;
53519;SDS011;39397;53.204;5.778;2023-04-24T02:38:07;5.78;;;3.47;;
53519;SDS011;39397;53.204;5.778;2023-04-24T02:40:33;9.07;;;3.60;;
53519;SDS011;39397;53.204;5.778;2023-04-24T02:42:58;4.38;;;3.08;;
53519;SDS011;39397;53.204;5.778;2023-04-24T02:45:24;5.90;;;3.33;;
53519;SDS011;39397;53.204;5.778;2023-04-24T02:47:52;5.57;;;3.63;;
53519;SDS011;39397;53.204;5.778;2023-04-24T02:50:18;6.47;;;4.60;;
53519;SDS011;39397;53.204;5.778;2023-04-24T02:52:44;7.95;;;5.40;;
53519;SDS011;39397;53.204;5.778;2023-04-24T02:55:10;7.68;;;4.85;;
53519;SDS011;39397;53.204;5.778;2023-04-24T02:57:35;6.88;;;4.78;;
53519;SDS011;39397;53.204;5.778;2023-04-24T03:00:01;6.60;;;4.10;;
53519;SDS011;39397;53.204;5.778;2023-04-24T03:02:28;5.82;;;3.63;;
53519;SDS011;39397;53.204;5.778;2023-04-24T03:04:53;5.63;;;3.40;;
53519;SDS011;39397;53.204;5.778;2023-04-24T03:07:20;6.22;;;2.42;;
53519;SDS011;39397;53.204;5.778;2023-04-24T03:09:46;6.70;;;3.05;;
53519;SDS011;39397;53.204;5.778;2023-04-24T03:12:12;5.85;;;2.72;;
53519;SDS011;39397;53.204;5.778;2023-04-24T03:14:38;4.60;;;2.30;;
53519;SDS011;39397;53.204;5.778;2023-04-24T03:17:03;4.82;;;2.55;;
53519;SDS011;39397;53.204;5.778;2023-04-24T03:19:30;5.10;;;2.38;;
53519;SDS011;39397;53.204;5.778;2023-04-24T03:21:55;4.47;;;2.53;;
53519;SDS011;39397;53.204;5.778;2023-04-24T03:24:21;6.40;;;2.85;;
53519;SDS011;39397;53.204;5.778;2023-04-24T03:26:47;5.63;;;3.20;;
53519;SDS011;39397;53.204;5.778;2023-04-24T03:29:15;7.10;;;3.85;;
53519;SDS011;39397;53.204;5.778;2023-04-24T03:31:41;9.55;;;4.43;;
53519;SDS011;39397;53.204;5.778;2023-04-24T03:34:07;7.47;;;5.35;;
53519;SDS011;39397;53.204;5.778;2023-04-24T03:36:32;8.93;;;4.45;;
53519;SDS011;39397;53.204;5.778;2023-04-24T03:38:58;7.10;;;4.60;;
53519;SDS011;39397;53.204;5.778;2023-04-24T03:41:24;10.45;;;4.65;;
53519;SDS011;39397;53.204;5.778;2023-04-24T03:43:49;7.35;;;4.32;;
53519;SDS011;39397;53.204;5.778;2023-04-24T03:46:15;7.15;;;4.38;;
53519;SDS011;39397;53.204;5.778;2023-04-24T03:48:41;6.10;;;4.60;;
53519;SDS011;39397;53.204;5.778;2023-04-24T03:51:07;6.45;;;4.57;;
53519;SDS011;39397;53.204;5.778;2023-04-24T03:53:32;8.45;;;5.38;;
53519;SDS011;39397;53.204;5.778;2023-04-24T03:55:58;7.30;;;4.10;;
53519;SDS011;39397;53.204;5.778;2023-04-24T03:58:24;5.50;;;3.75;;
53519;SDS011;39397;53.204;5.778;2023-04-24T04:00:49;9.95;;;3.90;;
53519;SDS011;39397;53.204;5.778;2023-04-24T04:03:16;6.13;;;4.03;;
53519;SDS011;39397;53.204;5.778;2023-04-24T04:05:41;8.52;;;4.30;;
53519;SDS011;39397;53.204;5.778;2023-04-24T04:08:07;6.28;;;4.88;;
53519;SDS011;39397;53.204;5.778;2023-04-24T04:10:33;8.45;;;6.38;;
53519;SDS011;39397;53.204;5.778;2023-04-24T04:12:58;10.30;;;5.93;;
53519;SDS011;39397;53.204;5.778;2023-04-24T04:15:25;10.85;;;6.28;;
53519;SDS011;39397;53.204;5.778;2023-04-24T04:17:50;9.65;;;7.00;;
53519;SDS011;39397;53.204;5.778;2023-04-24T04:20:16;8.35;;;5.90;;
53519;SDS011;39397;53.204;5.778;2023-04-24T04:22:42;8.00;;;5.47;;
53519;SDS011;39397;53.204;5.778;2023-04-24T04:25:08;9.55;;;5.18;;
53519;SDS011;39397;53.204;5.778;2023-04-24T04:27:34;5.05;;;3.10;;
53519;SDS011;39397;53.204;5.778;2023-04-24T04:30:03;4.88;;;3.30;;
53519;SDS011;39397;53.204;5.778;2023-04-24T04:32:30;5.95;;;3.00;;
53519;SDS011;39397;53.204;5.778;2023-04-24T04:34:58;4.18;;;1.95;;
53519;SDS011;39397;53.204;5.778;2023-04-24T04:37:37;3.53;;;1.70;;
53519;SDS011;39397;53.204;5.778;2023-04-24T04:40:05;2.95;;;1.38;;
53519;SDS011;39397;53.204;5.778;2023-04-24T04:42:32;4.30;;;2.15;;
53519;SDS011;39397;53.204;5.778;2023-04-24T04:44:59;5.80;;;3.17;;
53519;SDS011;39397;53.204;5.778;2023-04-24T04:47:43;9.82;;;5.00;;
53519;SDS011;39397;53.204;5.778;2023-04-24T04:50:09;14.35;;;6.05;;
53519;SDS011;39397;53.204;5.778;2023-04-24T04:52:44;11.23;;;6.90;;
53519;SDS011;39397;53.204;5.778;2023-04-24T04:55:13;12.82;;;8.25;;
53519;SDS011;39397;53.204;5.778;2023-04-24T04:57:39;15.70;;;8.77;;
53519;SDS011;39397;53.204;5.778;2023-04-24T05:00:05;13.77;;;8.48;;
53519;SDS011;39397;53.204;5.778;2023-04-24T05:02:32;13.18;;;8.05;;
53519;SDS011;39397;53.204;5.778;2023-04-24T05:04:58;14.63;;;7.68;;
53519;SDS011;39397;53.204;5.778;2023-04-24T05:07:23;11.10;;;7.57;;
53519;SDS011;39397;53.204;5.778;2023-04-24T05:09:49;9.80;;;7.53;;
53519;SDS011;39397;53.204;5.778;2023-04-24T05:12:16;9.82;;;5.45;;
53519;SDS011;39397;53.204;5.778;2023-04-24T05:14:42;6.60;;;4.18;;
53519;SDS011;39397;53.204;5.778;2023-04-24T05:17:07;6.95;;;3.10;;
53519;SDS011;39397;53.204;5.778;2023-04-24T05:19:33;5.97;;;3.13;;
53519;SDS011;39397;53.204;5.778;2023-04-24T05:22:01;5.55;;;2.78;;
53519;SDS011;39397;53.204;5.778;2023-04-24T05:24:29;9.55;;;3.40;;
53519;SDS011;39397;53.204;5.778;2023-04-24T05:26:55;6.07;;;2.80;;
53519;SDS011;39397;53.204;5.778;2023-04-24T05:29:22;5.85;;;2.80;;
53519;SDS011;39397;53.204;5.778;2023-04-24T05:31:47;4.50;;;2.70;;
53519;SDS011;39397;53.204;5.778;2023-04-24T05:34:13;6.05;;;2.83;;
53519;SDS011;39397;53.204;5.778;2023-04-24T05:36:43;6.10;;;3.25;;
53519;SDS011;39397;53.204;5.778;2023-04-24T05:39:09;6.40;;;3.45;;
53519;SDS011;39397;53.204;5.778;2023-04-24T05:41:35;8.90;;;3.25;;
53519;SDS011;39397;53.204;5.778;2023-04-24T05:44:01;5.68;;;2.35;;
53519;SDS011;39397;53.204;5.778;2023-04-24T05:46:27;7.55;;;2.75;;
53519;SDS011;39397;53.204;5.778;2023-04-24T05:48:52;7.32;;;2.25;;
53519;SDS011;39397;53.204;5.778;2023-04-24T05:51:18;6.07;;;2.30;;
53519;SDS011;39397;53.204;5.778;2023-04-24T05:53:45;5.65;;;2.45;;
53519;SDS011;39397;53.204;5.778;2023-04-24T05:56:11;5.85;;;2.60;;
53519;SDS011;39397;53.204;5.778;2023-04-24T05:58:37;5.57;;;3.00;;
53519;SDS011;39397;53.204;5.778;2023-04-24T06:01:02;4.13;;;2.03;;
53519;SDS011;39397;53.204;5.778;2023-04-24T06:03:28;6.53;;;1.90;;
53519;SDS011;39397;53.204;5.778;2023-04-24T06:05:54;5.20;;;1.58;;
53519;SDS011;39397;53.204;5.778;2023-04-24T06:08:20;4.72;;;1.77;;
53519;SDS011;39397;53.204;5.778;2023-04-24T06:10:48;6.88;;;1.92;;
53519;SDS011;39397;53.204;5.778;2023-04-24T06:13:14;5.20;;;1.90;;
53519;SDS011;39397;53.204;5.778;2023-04-24T06:15:40;8.48;;;1.98;;
53519;SDS011;39397;53.204;5.778;2023-04-24T06:18:07;5.22;;;1.75;;
53519;SDS011;39397;53.204;5.778;2023-04-24T06:20:38;4.85;;;1.98;;
53519;SDS011;39397;53.204;5.778;2023-04-24T06:23:04;6.57;;;2.42;;
53519;SDS011;39397;53.204;5.778;2023-04-24T06:25:29;8.43;;;3.28;;
53519;SDS011;39397;53.204;5.778;2023-04-24T06:27:55;10.65;;;5.00;;
53519;SDS011;39397;53.204;5.778;2023-04-24T06:30:22;12.35;;;7.90;;
53519;SDS011;39397;53.204;5.778;2023-04-24T06:32:48;18.33;;;9.40;;
53519;SDS011;39397;53.204;5.778;2023-04-24T06:35:13;15.60;;;9.32;;
53519;SDS011;39397;53.204;5.778;2023-04-24T06:37:41;19.08;;;10.93;;
53519;SDS011;39397;53.204;5.778;2023-04-24T06:40:08;20.40;;;11.55;;
53519;SDS011;39397;53.204;5.778;2023-04-24T06:42:34;21.98;;;12.27;;
53519;SDS011;39397;53.204;5.778;2023-04-24T06:45:01;24.98;;;13.07;;
53519;SDS011;39397;53.204;5.778;2023-04-24T06:47:27;23.35;;;14.30;;
53519;SDS011;39397;53.204;5.778;2023-04-24T06:49:52;22.08;;;11.82;;
53519;SDS011;39397;53.204;5.778;2023-04-24T06:52:18;22.35;;;12.85;;
53519;SDS011;39397;53.204;5.778;2023-04-24T06:54:44;17.55;;;10.38;;
53519;SDS011;39397;53.204;5.778;2023-04-24T06:57:10;16.42;;;9.52;;
53519;SDS011;39397;53.204;5.778;2023-04-24T06:59:36;21.85;;;11.45;;
53519;SDS011;39397;53.204;5.778;2023-04-24T07:02:02;19.38;;;10.10;;
53519;SDS011;39397;53.204;5.778;2023-04-24T07:04:28;19.25;;;11.20;;
53519;SDS011;39397;53.204;5.778;2023-04-24T07:06:55;17.42;;;12.25;;
53519;SDS011;39397;53.204;5.778;2023-04-24T07:09:26;19.98;;;12.25;;
53519;SDS011;39397;53.204;5.778;2023-04-24T07:11:52;21.40;;;12.73;;
53519;SDS011;39397;53.204;5.778;2023-04-24T07:14:18;20.13;;;12.02;;
53519;SDS011;39397;53.204;5.778;2023-04-24T07:16:45;20.33;;;13.38;;
53519;SDS011;39397;53.204;5.778;2023-04-24T07:19:12;19.20;;;13.27;;
53519;SDS011;39397;53.204;5.778;2023-04-24T07:21:38;18.35;;;13.27;;
53519;SDS011;39397;53.204;5.778;2023-04-24T07:24:04;20.13;;;13.55;;
53519;SDS011;39397;53.204;5.778;2023-04-24T07:26:31;18.45;;;11.13;;
53519;SDS011;39397;53.204;5.778;2023-04-24T07:28:57;20.63;;;10.98;;
53519;SDS011;39397;53.204;5.778;2023-04-24T07:31:23;18.42;;;9.48;;
53519;SDS011;39397;53.204;5.778;2023-04-24T07:33:51;18.08;;;9.68;;
53519;SDS011;39397;53.204;5.778;2023-04-24T07:36:17;13.75;;;7.80;;
53519;SDS011;39397;53.204;5.778;2023-04-24T07:38:47;13.30;;;7.18;;
53519;SDS011;39397;53.204;5.778;2023-04-24T07:41:13;9.98;;;6.57;;
53519;SDS011;39397;53.204;5.778;2023-04-24T07:43:39;9.75;;;5.65;;
53519;SDS011;39397;53.204;5.778;2023-04-24T07:46:06;12.93;;;6.47;;
53519;SDS011;39397;53.204;5.778;2023-04-24T07:48:32;13.93;;;6.45;;
53519;SDS011;39397;53.204;5.778;2023-04-24T07:50:58;10.73;;;5.97;;
53519;SDS011;39397;53.204;5.778;2023-04-24T07:53:24;8.93;;;4.68;;
53519;SDS011;39397;53.204;5.778;2023-04-24T07:55:49;13.52;;;5.63;;
53519;SDS011;39397;53.204;5.778;2023-04-24T07:58:15;11.07;;;4.95;;
53519;SDS011;39397;53.204;5.778;2023-04-24T08:00:41;8.40;;;4.68;;
53519;SDS011;39397;53.204;5.778;2023-04-24T08:03:07;10.48;;;4.60;;
53519;SDS011;39397;53.204;5.778;2023-04-24T08:05:32;9.30;;;5.32;;
53519;SDS011;39397;53.204;5.778;2023-04-24T08:07:58;14.82;;;5.43;;
53519;SDS011;39397;53.204;5.778;2023-04-24T08:10:24;13.45;;;4.88;;
53519;SDS011;39397;53.204;5.778;2023-04-24T08:12:50;9.88;;;5.15;;
53519;SDS011;39397;53.204;5.778;2023-04-24T08:15:16;12.90;;;5.25;;
53519;SDS011;39397;53.204;5.778;2023-04-24T08:17:42;10.85;;;4.95;;
53519;SDS011;39397;53.204;5.778;2023-04-24T08:20:08;10.68;;;5.43;;
53519;SDS011;39397;53.204;5.778;2023-04-24T08:22:39;10.27;;;5.20;;
53519;SDS011;39397;53.204;5.778;2023-04-24T08:25:05;11.90;;;5.50;;
53519;SDS011;39397;53.204;5.778;2023-04-24T08:27:32;14.20;;;5.07;;
53519;SDS011;39397;53.204;5.778;2023-04-24T08:29:58;11.45;;;4.38;;
53519;SDS011;39397;53.204;5.778;2023-04-24T08:32:26;11.88;;;4.10;;
53519;SDS011;39397;53.204;5.778;2023-04-24T08:34:54;12.15;;;4.72;;
53519;SDS011;39397;53.204;5.778;2023-04-24T08:37:21;11.75;;;4.13;;
53519;SDS011;39397;53.204;5.778;2023-04-24T08:39:48;13.18;;;4.10;;
53519;SDS011;39397;53.204;5.778;2023-04-24T08:42:17;10.27;;;3.55;;
53519;SDS011;39397;53.204;5.778;2023-04-24T08:44:44;10.52;;;3.40;;
53519;SDS011;39397;53.204;5.778;2023-04-24T08:47:11;12.77;;;4.28;;
53519;SDS011;39397;53.204;5.778;2023-04-24T08:49:37;7.93;;;2.50;;
53519;SDS011;39397;53.204;5.778;2023-04-24T08:52:07;9.70;;;3.13;;
53519;SDS011;39397;53.204;5.778;2023-04-24T08:54:38;10.27;;;2.58;;
53519;SDS011;39397;53.204;5.778;2023-04-24T08:57:08;7.65;;;2.53;;
53519;SDS011;39397;53.204;5.778;2023-04-24T08:59:36;8.98;;;2.58;;
53519;SDS011;39397;53.204;5.778;2023-04-24T09:02:03;9.88;;;3.13;;
53519;SDS011;39397;53.204;5.778;2023-04-24T09:04:29;9.45;;;2.75;;
53519;SDS011;39397;53.204;5.778;2023-04-24T09:06:58;10.90;;;3.00;;
53519;SDS011;39397;53.204;5.778;2023-04-24T09:09:25;10.27;;;3.30;;
53519;SDS011;39397;53.204;5.778;2023-04-24T09:11:51;15.15;;;3.70;;
53519;SDS011;39397;53.204;5.778;2023-04-24T09:14:20;15.18;;;3.13;;
53519;SDS011;39397;53.204;5.778;2023-04-24T09:16:46;11.05;;;3.00;;
53519;SDS011;39397;53.204;5.778;2023-04-24T09:19:15;10.70;;;2.72;;
53519;SDS011;39397;53.204;5.778;2023-04-24T09:21:41;12.38;;;2.97;;
53519;SDS011;39397;53.204;5.778;2023-04-24T09:24:17;11.02;;;3.17;;
53519;SDS011;39397;53.204;5.778;2023-04-24T09:26:48;9.82;;;2.13;;
53519;SDS011;39397;53.204;5.778;2023-04-24T09:29:25;16.55;;;3.60;;
53519;SDS011;39397;53.204;5.778;2023-04-24T09:31:56;9.65;;;2.70;;
53519;SDS011;39397;53.204;5.778;2023-04-24T09:34:25;9.77;;;2.75;;
53519;SDS011;39397;53.204;5.778;2023-04-24T09:36:52;11.93;;;2.58;;
53519;SDS011;39397;53.204;5.778;2023-04-24T09:39:18;6.50;;;2.03;;
53519;SDS011;39397;53.204;5.778;2023-04-24T09:44:23;8.82;;;2.30;;
53519;SDS011;39397;53.204;5.778;2023-04-24T09:46:54;8.40;;;1.90;;
53519;SDS011;39397;53.204;5.778;2023-04-24T09:49:23;11.60;;;2.42;;
53519;SDS011;39397;53.204;5.778;2023-04-24T09:52:15;9.57;;;2.22;;
53519;SDS011;39397;53.204;5.778;2023-04-24T09:55:06;13.68;;;2.35;;
53519;SDS011;39397;53.204;5.778;2023-04-24T09:57:46;9.38;;;2.28;;
53519;SDS011;39397;53.204;5.778;2023-04-24T10:00:24;11.52;;;1.90;;
53519;SDS011;39397;53.204;5.778;2023-04-24T10:02:55;9.68;;;2.35;;
53519;SDS011;39397;53.204;5.778;2023-04-24T10:05:28;11.63;;;2.08;;
53519;SDS011;39397;53.204;5.778;2023-04-24T10:07:57;11.30;;;2.58;;
53519;SDS011;39397;53.204;5.778;2023-04-24T10:13:13;7.78;;;1.73;;
53519;SDS011;39397;53.204;5.778;2023-04-24T10:15:41;6.55;;;1.52;;
53519;SDS011;39397;53.204;5.778;2023-04-24T10:18:15;10.90;;;1.42;;
53519;SDS011;39397;53.204;5.778;2023-04-24T10:20:49;8.48;;;2.20;;
53519;SDS011;39397;53.204;5.778;2023-04-24T10:23:18;7.97;;;1.77;;
53519;SDS011;39397;53.204;5.778;2023-04-24T10:25:56;8.88;;;2.05;;
53519;SDS011;39397;53.204;5.778;2023-04-24T10:28:32;10.52;;;2.05;;
53519;SDS011;39397;53.204;5.778;2023-04-24T10:31:17;5.60;;;1.65;;
53519;SDS011;39397;53.204;5.778;2023-04-24T10:33:48;8.32;;;2.03;;
53519;SDS011;39397;53.204;5.778;2023-04-24T10:36:27;11.35;;;2.13;;
53519;SDS011;39397;53.204;5.778;2023-04-24T10:39:03;10.00;;;1.70;;
53519;SDS011;39397;53.204;5.778;2023-04-24T10:44:25;11.30;;;1.90;;
53519;SDS011;39397;53.204;5.778;2023-04-24T10:47:29;12.60;;;2.05;;
53519;SDS011;39397;53.204;5.778;2023-04-24T10:50:16;8.77;;;1.50;;
53519;SDS011;39397;53.204;5.778;2023-04-24T10:52:52;9.88;;;1.58;;
53519;SDS011;39397;53.204;5.778;2023-04-24T10:55:58;8.18;;;1.70;;
53519;SDS011;39397;53.204;5.778;2023-04-24T10:58:14;8.90;;;1.60;;
53519;SDS011;39397;53.204;5.778;2023-04-24T11:00:42;7.25;;;1.52;;
53519;SDS011;39397;53.204;5.778;2023-04-24T11:03:27;4.60;;;1.33;;
53519;SDS011;39397;53.204;5.778;2023-04-24T11:06:16;5.85;;;1.20;;
53519;SDS011;39397;53.204;5.778;2023-04-24T11:09:05;7.20;;;1.48;;
53519;SDS011;39397;53.204;5.778;2023-04-24T11:11:35;5.22;;;1.33;;
53519;SDS011;39397;53.204;5.778;2023-04-24T11:14:21;4.32;;;1.02;;
53519;SDS011;39397;53.204;5.778;2023-04-24T11:16:53;5.70;;;1.10;;
53519;SDS011;39397;53.204;5.778;2023-04-24T11:19:43;4.38;;;1.20;;
53519;SDS011;39397;53.204;5.778;2023-04-24T11:22:16;6.60;;;1.40;;
53519;SDS011;39397;53.204;5.778;2023-04-24T11:25:04;5.20;;;1.33;;
53519;SDS011;39397;53.204;5.778;2023-04-24T11:27:30;4.13;;;0.95;;
53519;SDS011;39397;53.204;5.778;2023-04-24T11:30:13;6.43;;;1.10;;
53519;SDS011;39397;53.204;5.778;2023-04-24T11:32:46;5.07;;;0.93;;
53519;SDS011;39397;53.204;5.778;2023-04-24T11:35:23;8.43;;;1.08;;
53519;SDS011;39397;53.204;5.778;2023-04-24T11:38:05;8.45;;;1.15;;
53519;SDS011;39397;53.204;5.778;2023-04-24T11:40:37;7.22;;;1.20;;
53519;SDS011;39397;53.204;5.778;2023-04-24T11:43:03;7.57;;;1.27;;
53519;SDS011;39397;53.204;5.778;2023-04-24T11:48:27;10.77;;;2.38;;
53519;SDS011;39397;53.204;5.778;2023-04-24T11:51:00;8.32;;;1.30;;
53519;SDS011;39397;53.204;5.778;2023-04-24T11:53:30;5.25;;;1.00;;
53519;SDS011;39397;53.204;5.778;2023-04-24T11:56:03;4.93;;;0.90;;
53519;SDS011;39397;53.204;5.778;2023-04-24T11:58:39;8.32;;;1.17;;
53519;SDS011;39397;53.204;5.778;2023-04-24T12:01:29;7.40;;;0.85;;
53519;SDS011;39397;53.204;5.778;2023-04-24T12:04:18;4.75;;;0.80;;
53519;SDS011;39397;53.204;5.778;2023-04-24T12:07:03;2.83;;;0.80;;
53519;SDS011;39397;53.204;5.778;2023-04-24T12:12:32;6.13;;;1.20;;
53519;SDS011;39397;53.204;5.778;2023-04-24T12:18:13;4.68;;;0.90;;
53519;SDS011;39397;53.204;5.778;2023-04-24T12:21:01;3.80;;;0.60;;
53519;SDS011;39397;53.204;5.778;2023-04-24T12:23:46;5.97;;;0.67;;
53519;SDS011;39397;53.204;5.778;2023-04-24T12:26:18;3.08;;;0.57;;
53519;SDS011;39397;53.204;5.778;2023-04-24T12:29:05;4.13;;;0.73;;
53519;SDS011;39397;53.204;5.778;2023-04-24T12:31:42;4.95;;;1.08;;
53519;SDS011;39397;53.204;5.778;2023-04-24T12:34:22;4.68;;;0.80;;
53519;SDS011;39397;53.204;5.778;2023-04-24T12:36:56;5.03;;;0.80;;
53519;SDS011;39397;53.204;5.778;2023-04-24T12:39:34;4.75;;;0.57;;
53519;SDS011;39397;53.204;5.778;2023-04-24T12:42:05;3.85;;;0.95;;
53519;SDS011;39397;53.204;5.778;2023-04-24T12:44:36;5.85;;;1.10;;
53519;SDS011;39397;53.204;5.778;2023-04-24T12:47:08;4.38;;;0.82;;
53519;SDS011;39397;53.204;5.778;2023-04-24T12:49:35;2.55;;;0.68;;
53519;SDS011;39397;53.204;5.778;2023-04-24T12:52:01;6.53;;;0.90;;
53519;SDS011;39397;53.204;5.778;2023-04-24T12:55:04;5.85;;;0.82;;
53519;SDS011;39397;53.204;5.778;2023-04-24T12:57:34;8.90;;;2.53;;
53519;SDS011;39397;53.204;5.778;2023-04-24T13:00:01;9.63;;;1.10;;
53519;SDS011;39397;53.204;5.778;2023-04-24T13:02:38;11.40;;;1.67;;
53519;SDS011;39397;53.204;5.778;2023-04-24T13:05:07;6.40;;;1.50;;
53519;SDS011;39397;53.204;5.778;2023-04-24T13:07:41;8.98;;;1.77;;
53519;SDS011;39397;53.204;5.778;2023-04-24T13:10:20;8.00;;;1.75;;
53519;SDS011;39397;53.204;5.778;2023-04-24T13:12:48;8.43;;;1.50;;
53519;SDS011;39397;53.204;5.778;2023-04-24T13:15:19;10.65;;;1.98;;
53519;SDS011;39397;53.204;5.778;2023-04-24T13:18:03;10.52;;;1.58;;
53519;SDS011;39397;53.204;5.778;2023-04-24T13:20:39;12.88;;;2.10;;
53519;SDS011;39397;53.204;5.778;2023-04-24T13:26:06;11.50;;;2.55;;
53519;SDS011;39397;53.204;5.778;2023-04-24T13:28:42;11.55;;;2.22;;
53519;SDS011;39397;53.204;5.778;2023-04-24T13:31:28;10.85;;;2.30;;
53519;SDS011;39397;53.204;5.778;2023-04-24T13:33:54;6.95;;;1.42;;
53519;SDS011;39397;53.204;5.778;2023-04-24T13:36:26;5.00;;;1.13;;
53519;SDS011;39397;53.204;5.778;2023-04-24T13:39:05;4.15;;;1.30;;
53519;SDS011;39397;53.204;5.778;2023-04-24T13:41:39;4.85;;;1.20;;
53519;SDS011;39397;53.204;5.778;2023-04-24T13:44:22;8.10;;;1.77;;
53519;SDS011;39397;53.204;5.778;2023-04-24T13:47:01;9.77;;;2.25;;
53519;SDS011;39397;53.204;5.778;2023-04-24T13:49:29;8.50;;;2.08;;
53519;SDS011;39397;53.204;5.778;2023-04-24T13:52:00;10.73;;;1.77;;
53519;SDS011;39397;53.204;5.778;2023-04-24T13:54:27;10.50;;;2.40;;
53519;SDS011;39397;53.204;5.778;2023-04-24T13:57:03;13.88;;;1.75;;
53519;SDS011;39397;53.204;5.778;2023-04-24T13:59:31;13.43;;;2.50;;
53519;SDS011;39397;53.204;5.778;2023-04-24T14:02:02;10.38;;;2.30;;
53519;SDS011;39397;53.204;5.778;2023-04-24T14:04:34;12.05;;;3.03;;
53519;SDS011;39397;53.204;5.778;2023-04-24T14:06:59;11.68;;;2.05;;
53519;SDS011;39397;53.204;5.778;2023-04-24T14:09:47;11.98;;;2.80;;
53519;SDS011;39397;53.204;5.778;2023-04-24T14:12:16;10.27;;;2.70;;
53519;SDS011;39397;53.204;5.778;2023-04-24T14:14:44;10.30;;;2.35;;
53519;SDS011;39397;53.204;5.778;2023-04-24T14:17:11;9.55;;;2.58;;
53519;SDS011;39397;53.204;5.778;2023-04-24T14:19:45;15.38;;;2.55;;
53519;SDS011;39397;53.204;5.778;2023-04-24T14:22:11;12.15;;;2.40;;
53519;SDS011;39397;53.204;5.778;2023-04-24T14:24:44;13.25;;;2.28;;
53519;SDS011;39397;53.204;5.778;2023-04-24T14:30:19;8.55;;;2.60;;
53519;SDS011;39397;53.204;5.778;2023-04-24T14:32:48;15.02;;;3.63;;
53519;SDS011;39397;53.204;5.778;2023-04-24T14:35:16;11.85;;;2.53;;
53519;SDS011;39397;53.204;5.778;2023-04-24T14:37:45;12.35;;;2.60;;
53519;SDS011;39397;53.204;5.778;2023-04-24T14:40:14;9.65;;;2.22;;
53519;SDS011;39397;53.204;5.778;2023-04-24T14:42:50;13.50;;;2.80;;
53519;SDS011;39397;53.204;5.778;2023-04-24T14:45:22;11.75;;;2.63;;
53519;SDS011;39397;53.204;5.778;2023-04-24T14:47:48;8.52;;;2.25;;
53519;SDS011;39397;53.204;5.778;2023-04-24T14:50:14;11.60;;;2.42;;
53519;SDS011;39397;53.204;5.778;2023-04-24T14:52:42;9.15;;;2.42;;
53519;SDS011;39397;53.204;5.778;2023-04-24T14:55:19;12.80;;;3.47;;
53519;SDS011;39397;53.204;5.778;2023-04-24T14:57:48;14.85;;;3.13;;
53519;SDS011;39397;53.204;5.778;2023-04-24T15:00:21;15.48;;;3.50;;
53519;SDS011;39397;53.204;5.778;2023-04-24T15:02:52;16.45;;;3.45;;
53519;SDS011;39397;53.204;5.778;2023-04-24T15:05:27;8.02;;;2.83;;
53519;SDS011;39397;53.204;5.778;2023-04-24T15:07:53;12.63;;;3.10;;
53519;SDS011;39397;53.204;5.778;2023-04-24T15:10:19;11.48;;;2.85;;
53519;SDS011;39397;53.204;5.778;2023-04-24T15:12:50;16.50;;;3.33;;
53519;SDS011;39397;53.204;5.778;2023-04-24T15:15:16;15.60;;;3.38;;
53519;SDS011;39397;53.204;5.778;2023-04-24T15:17:47;13.55;;;3.50;;
53519;SDS011;39397;53.204;5.778;2023-04-24T15:20:17;14.43;;;4.68;;